createdAt,value
2023-04-16T00:01:37.356Z,9.43
2023-04-16T00:04:04.565Z,10.50
2023-04-16T00:06:32.087Z,12.48
2023-04-16T00:08:59.081Z,10.57
2023-04-16T00:11:25.854Z,13.23
2023-04-16T00:13:52.670Z,10.82
2023-04-16T00:16:19.577Z,12.35
2023-04-16T00:18:46.658Z,11.25
2023-04-16T00:21:13.509Z,11.18
2023-04-16T00:23:40.500Z,11.63
2023-04-16T00:26:08.258Z,11.10
2023-04-16T00:28:35.143Z,10.27
2023-04-16T00:31:01.947Z,12.13
2023-04-16T00:33:30.241Z,10.02
2023-04-16T00:35:57.068Z,11.90
2023-04-16T00:38:23.954Z,11.23
2023-04-16T00:40:50.733Z,12.35
2023-04-16T00:43:24.938Z,11.40
2023-04-16T00:45:53.114Z,11.80
2023-04-16T00:48:22.001Z,10.43
2023-04-16T00:50:48.930Z,14.05
2023-04-16T00:53:16.252Z,10.30
2023-04-16T00:55:43.819Z,10.18
2023-04-16T00:58:10.658Z,10.50
2023-04-16T01:00:37.663Z,10.23
2023-04-16T01:03:04.969Z,9.65
2023-04-16T01:05:31.860Z,10.88
2023-04-16T01:07:59.864Z,10.25
2023-04-16T01:10:26.679Z,9.20
2023-04-16T01:12:53.489Z,12.20
2023-04-16T01:15:20.461Z,10.20
2023-04-16T01:17:47.386Z,12.15
2023-04-16T01:20:14.560Z,8.50
2023-04-16T01:22:41.425Z,11.40
2023-04-16T01:25:08.301Z,10.68
2023-04-16T01:27:35.109Z,8.90
2023-04-16T01:30:02.054Z,9.70
2023-04-16T01:32:31.614Z,10.77
2023-04-16T01:34:58.441Z,10.57
2023-04-16T01:37:25.531Z,10.70
2023-04-16T01:39:52.420Z,11.00
2023-04-16T01:42:19.202Z,10.70
2023-04-16T01:44:47.245Z,10.57
2023-04-16T01:47:14.025Z,12.57
2023-04-16T01:49:40.879Z,11.82
2023-04-16T01:52:08.580Z,11.18
2023-04-16T01:54:35.379Z,11.55
2023-04-16T01:57:02.221Z,11.77
2023-04-16T01:59:29.098Z,11.80
2023-04-16T02:01:56.095Z,13.13
2023-04-16T02:04:22.960Z,12.50
2023-04-16T02:06:49.800Z,13.52
2023-04-16T02:09:16.652Z,11.32
2023-04-16T02:11:43.460Z,11.40
2023-04-16T02:14:10.348Z,10.90
2023-04-16T02:16:37.224Z,14.27
2023-04-16T02:19:04.682Z,11.77
2023-04-16T02:21:31.892Z,13.65
2023-04-16T02:23:58.782Z,11.65
2023-04-16T02:26:26.588Z,11.07
2023-04-16T02:28:53.379Z,13.02
2023-04-16T02:31:21.803Z,10.82
2023-04-16T02:33:48.723Z,13.05
2023-04-16T02:36:15.619Z,13.30
2023-04-16T02:38:42.456Z,11.80
2023-04-16T02:41:09.334Z,11.85
2023-04-16T02:43:36.185Z,9.60
2023-04-16T02:46:03.061Z,12.25
2023-04-16T02:48:29.928Z,10.45
2023-04-16T02:50:56.744Z,9.35
2023-04-16T02:53:23.574Z,11.52
2023-04-16T02:55:54.138Z,11.10
2023-04-16T02:58:21.786Z,12.65
2023-04-16T03:00:48.609Z,12.80
2023-04-16T03:03:15.581Z,13.55
2023-04-16T03:05:42.658Z,8.88
2023-04-16T03:08:09.504Z,10.70
2023-04-16T03:10:36.543Z,10.55
2023-04-16T03:13:03.821Z,10.60
2023-04-16T03:15:31.092Z,11.50
2023-04-16T03:17:58.191Z,11.70
2023-04-16T03:20:25.080Z,9.85
2023-04-16T03:22:55.014Z,14.27
2023-04-16T03:25:21.902Z,10.07
2023-04-16T03:27:48.750Z,11.40
2023-04-16T03:30:16.419Z,11.20
2023-04-16T03:32:43.313Z,11.85
2023-04-16T03:35:10.441Z,9.40
2023-04-16T03:37:37.247Z,10.30
2023-04-16T03:40:05.905Z,8.68
2023-04-16T03:42:32.792Z,10.02
2023-04-16T03:45:00.767Z,10.02
2023-04-16T03:47:27.654Z,10.50
2023-04-16T03:49:54.552Z,11.50
2023-04-16T03:52:21.393Z,9.75
2023-04-16T03:54:48.195Z,12.20
2023-04-16T03:57:15.040Z,11.27
2023-04-16T03:59:41.862Z,10.07
2023-04-16T04:02:08.722Z,9.65
2023-04-16T04:04:35.793Z,10.52
2023-04-16T04:07:02.649Z,9.80
2023-04-16T04:09:29.471Z,10.18
2023-04-16T04:11:56.296Z,10.98
2023-04-16T04:14:23.123Z,10.88
2023-04-16T04:16:50.008Z,11.95
2023-04-16T04:19:16.806Z,11.85
2023-04-16T04:21:43.637Z,10.07
2023-04-16T04:24:10.603Z,9.88
2023-04-16T04:26:37.619Z,11.20
2023-04-16T04:29:04.450Z,12.73
2023-04-16T04:31:31.345Z,10.57
2023-04-16T04:33:58.163Z,11.57
2023-04-16T04:36:24.920Z,12.32
2023-04-16T04:38:51.714Z,10.60
2023-04-16T04:41:18.812Z,9.50
2023-04-16T04:43:45.598Z,10.38
2023-04-16T04:46:12.422Z,10.85
2023-04-16T04:48:39.290Z,11.23
2023-04-16T04:51:06.307Z,10.68
2023-04-16T04:53:33.221Z,9.07
2023-04-16T04:56:09.134Z,9.50
2023-04-16T04:58:38.379Z,12.30
2023-04-16T05:01:05.265Z,13.02
2023-04-16T05:03:32.136Z,11.20
2023-04-16T05:05:59.156Z,9.90
2023-04-16T05:08:25.960Z,10.05
2023-04-16T05:10:52.826Z,11.68
2023-04-16T05:13:19.660Z,10.50
2023-04-16T05:15:46.634Z,10.98
2023-04-16T05:18:13.442Z,9.70
2023-04-16T05:20:40.498Z,9.20
2023-04-16T05:23:07.460Z,13.18
2023-04-16T05:25:34.395Z,9.45
2023-04-16T05:28:01.183Z,11.23
2023-04-16T05:30:27.959Z,9.38
2023-04-16T05:32:54.854Z,11.13
2023-04-16T05:35:22.167Z,11.20
2023-04-16T05:37:48.967Z,10.40
2023-04-16T05:40:15.989Z,12.32
2023-04-16T05:42:42.781Z,10.15
2023-04-16T05:45:09.786Z,10.82
2023-04-16T05:47:36.672Z,9.57
2023-04-16T05:50:03.554Z,9.27
2023-04-16T05:52:30.359Z,12.48
2023-04-16T05:54:58.117Z,9.77
2023-04-16T05:57:24.947Z,10.65
2023-04-16T05:59:51.794Z,11.60
2023-04-16T06:02:18.657Z,10.95
2023-04-16T06:04:45.703Z,10.77
2023-04-16T06:07:12.508Z,12.02
2023-04-16T06:09:39.817Z,12.18
2023-04-16T06:12:07.666Z,12.40
2023-04-16T06:14:34.451Z,12.65
2023-04-16T06:17:01.489Z,13.65
2023-04-16T06:19:28.289Z,12.45
2023-04-16T06:21:55.134Z,15.82
2023-04-16T06:24:22.161Z,11.13
2023-04-16T06:26:48.967Z,12.02
2023-04-16T06:29:15.747Z,13.27
2023-04-16T06:31:42.663Z,11.48
2023-04-16T06:34:09.492Z,9.05
2023-04-16T06:36:37.676Z,10.63
2023-04-16T06:39:05.072Z,9.80
2023-04-16T06:41:31.886Z,10.65
2023-04-16T06:43:58.709Z,11.18
2023-04-16T06:46:25.825Z,12.55
2023-04-16T06:48:52.651Z,9.88
2023-04-16T06:51:19.485Z,11.05
2023-04-16T06:53:46.342Z,11.10
2023-04-16T06:56:13.121Z,11.75
2023-04-16T06:58:39.895Z,10.68
2023-04-16T07:01:06.749Z,11.57
2023-04-16T07:03:33.690Z,8.50
2023-04-16T07:06:00.582Z,9.18
2023-04-16T07:08:27.504Z,9.35
2023-04-16T07:10:54.434Z,14.65
2023-04-16T07:13:21.684Z,9.05
2023-04-16T07:15:48.536Z,11.68
2023-04-16T07:18:15.903Z,9.15
2023-04-16T07:20:42.774Z,10.18
2023-04-16T07:23:09.775Z,11.00
2023-04-16T07:25:36.685Z,8.73
2023-04-16T07:28:03.959Z,7.13
2023-04-16T07:30:34.297Z,10.02
2023-04-16T07:33:03.569Z,8.60
2023-04-16T07:35:30.963Z,10.75
2023-04-16T07:37:57.810Z,8.20
2023-04-16T07:40:24.789Z,6.90
2023-04-16T07:42:51.717Z,9.70
2023-04-16T07:45:18.868Z,8.10
2023-04-16T07:47:46.156Z,9.05
2023-04-16T07:50:13.269Z,8.38
2023-04-16T07:52:41.521Z,7.55
2023-04-16T07:55:09.148Z,6.47
2023-04-16T07:57:35.967Z,7.60
2023-04-16T08:00:05.073Z,7.88
2023-04-16T08:02:32.024Z,5.53
2023-04-16T08:04:59.476Z,5.38
2023-04-16T08:07:26.437Z,4.75
2023-04-16T08:09:53.722Z,5.60
2023-04-16T08:12:21.029Z,5.72
2023-04-16T08:14:48.055Z,3.95
2023-04-16T08:17:15.209Z,4.40
2023-04-16T08:19:42.775Z,5.07
2023-04-16T08:22:09.568Z,3.50
2023-04-16T08:24:36.386Z,5.10
2023-04-16T08:27:15.497Z,4.35
2023-04-16T08:29:45.803Z,3.92
2023-04-16T08:32:12.855Z,3.88
2023-04-16T08:34:39.814Z,4.20
2023-04-16T08:37:06.662Z,5.38
2023-04-16T08:39:33.525Z,3.50
2023-04-16T08:42:02.526Z,4.43
2023-04-16T08:44:33.866Z,1.83
2023-04-16T08:49:28.260Z,4.35
2023-04-16T08:51:55.985Z,3.58
2023-04-16T08:54:35.429Z,3.83
2023-04-16T08:57:05.896Z,3.42
2023-04-16T08:59:33.371Z,2.33
2023-04-16T09:02:00.860Z,2.72
2023-04-16T09:04:28.768Z,2.88
2023-04-16T09:06:56.788Z,2.75
2023-04-16T09:09:23.782Z,2.60
2023-04-16T09:11:51.372Z,3.20
2023-04-16T09:14:18.241Z,3.40
2023-04-16T09:16:46.156Z,3.80
2023-04-16T09:19:13.591Z,3.90
2023-04-16T09:21:41.288Z,5.32
2023-04-16T09:24:08.678Z,3.00
2023-04-16T09:26:35.949Z,4.50
2023-04-16T09:29:02.834Z,3.08
2023-04-16T09:31:29.761Z,4.15
2023-04-16T09:34:07.121Z,4.03
2023-04-16T09:36:34.427Z,2.70
2023-04-16T09:39:01.550Z,3.33
2023-04-16T09:41:29.701Z,3.05
2023-04-16T09:43:57.668Z,2.47
2023-04-16T09:46:25.401Z,1.52
2023-04-16T09:48:52.256Z,3.08
2023-04-16T09:51:19.040Z,2.80
2023-04-16T09:53:46.185Z,2.40
2023-04-16T09:56:13.889Z,3.10
2023-04-16T09:58:41.748Z,2.67
2023-04-16T10:01:10.934Z,2.38
2023-04-16T10:03:39.799Z,2.67
2023-04-16T10:06:07.666Z,3.70
2023-04-16T10:08:34.657Z,3.03
2023-04-16T10:11:02.220Z,2.13
2023-04-16T10:13:31.137Z,2.97
2023-04-16T10:15:58.877Z,3.08
2023-04-16T10:18:25.729Z,3.05
2023-04-16T10:20:52.970Z,4.80
2023-04-16T10:23:21.079Z,2.97
2023-04-16T10:25:48.949Z,3.00
2023-04-16T10:28:16.263Z,1.48
2023-04-16T10:30:52.867Z,1.80
2023-04-16T10:33:20.894Z,1.25
2023-04-16T10:35:54.988Z,3.85
2023-04-16T10:38:28.425Z,1.55
2023-04-16T10:40:59.229Z,2.42
2023-04-16T10:43:26.115Z,1.75
2023-04-16T10:45:53.836Z,1.15
2023-04-16T10:48:20.868Z,1.73
2023-04-16T10:50:56.185Z,1.08
2023-04-16T10:53:27.013Z,2.40
2023-04-16T10:56:03.080Z,1.67
2023-04-16T10:58:31.030Z,1.02
2023-04-16T11:01:01.653Z,1.45
2023-04-16T11:03:32.492Z,1.73
2023-04-16T11:06:13.111Z,1.95
2023-04-16T11:08:53.410Z,2.60
2023-04-16T11:11:22.107Z,2.15
2023-04-16T11:13:48.928Z,1.70
2023-04-16T11:16:16.362Z,2.90
2023-04-16T11:18:51.624Z,1.02
2023-04-16T11:21:19.690Z,1.48
2023-04-16T11:23:47.798Z,2.25
2023-04-16T11:26:27.955Z,1.00
2023-04-16T11:28:56.233Z,1.30
2023-04-16T11:31:23.692Z,1.98
2023-04-16T11:33:50.904Z,2.17
2023-04-16T11:36:17.762Z,2.63
2023-04-16T11:38:44.632Z,0.90
2023-04-16T11:41:11.493Z,1.00
2023-04-16T11:43:38.376Z,2.53
2023-04-16T11:46:16.570Z,1.05
2023-04-16T11:48:54.190Z,1.23
2023-04-16T11:51:23.242Z,1.13
2023-04-16T11:53:52.900Z,0.88
2023-04-16T11:56:29.901Z,3.13
2023-04-16T11:59:13.358Z,1.65
2023-04-16T12:01:41.737Z,2.40
2023-04-16T12:04:09.035Z,2.22
2023-04-16T12:06:36.341Z,1.30
2023-04-16T12:09:22.007Z,1.42
2023-04-16T12:11:48.783Z,1.40
2023-04-16T12:14:15.670Z,2.95
2023-04-16T12:16:42.524Z,1.40
2023-04-16T12:19:11.453Z,2.10
2023-04-16T12:21:38.404Z,2.42
2023-04-16T12:24:06.396Z,2.67
2023-04-16T12:26:52.173Z,3.60
2023-04-16T12:29:20.600Z,1.27
2023-04-16T12:31:49.017Z,2.95
2023-04-16T12:34:16.312Z,1.20
2023-04-16T12:36:44.100Z,1.83
2023-04-16T12:39:11.581Z,1.73
2023-04-16T12:41:39.531Z,1.27
2023-04-16T12:44:12.077Z,2.00
2023-04-16T12:46:39.690Z,0.95
2023-04-16T12:49:06.739Z,1.40
2023-04-16T12:51:33.963Z,0.93
2023-04-16T12:54:01.423Z,0.85
2023-04-16T12:56:28.318Z,1.52
2023-04-16T12:58:55.271Z,1.45
2023-04-16T13:01:22.215Z,2.15
2023-04-16T13:03:49.690Z,0.82
2023-04-16T13:06:16.945Z,0.73
2023-04-16T13:08:44.654Z,1.63
2023-04-16T13:11:11.885Z,1.25
2023-04-16T13:13:38.707Z,1.27
2023-04-16T13:16:06.872Z,1.42
2023-04-16T13:18:34.026Z,0.70
2023-04-16T13:21:00.877Z,1.35
2023-04-16T13:23:27.709Z,0.80
2023-04-16T13:25:54.757Z,0.93
2023-04-16T13:28:21.587Z,0.90
2023-04-16T13:30:48.512Z,1.80
2023-04-16T13:33:15.326Z,0.77
2023-04-16T13:35:42.361Z,1.77
2023-04-16T13:38:09.325Z,1.92
2023-04-16T13:40:36.265Z,3.30
2023-04-16T13:43:03.081Z,2.00
2023-04-16T13:45:30.086Z,2.65
2023-04-16T13:47:56.966Z,2.05
2023-04-16T13:50:23.788Z,2.95
2023-04-16T13:52:50.689Z,1.30
2023-04-16T13:55:20.773Z,1.70
2023-04-16T13:57:47.827Z,3.05
2023-04-16T14:00:15.454Z,1.70
2023-04-16T14:02:42.970Z,2.45
2023-04-16T14:05:09.875Z,3.03
2023-04-16T14:07:37.243Z,4.63
2023-04-16T14:10:04.180Z,3.45
2023-04-16T14:12:31.750Z,2.03
2023-04-16T14:14:58.723Z,3.33
2023-04-16T14:17:25.604Z,3.20
2023-04-16T14:19:52.436Z,2.63
2023-04-16T14:22:19.357Z,4.50
2023-04-16T14:24:46.201Z,2.95
2023-04-16T14:27:13.716Z,2.72
2023-04-16T14:29:41.435Z,2.50
2023-04-16T14:32:08.374Z,2.60
2023-04-16T14:34:35.324Z,1.65
2023-04-16T14:37:02.360Z,1.73
2023-04-16T14:39:29.645Z,1.70
2023-04-16T14:41:56.482Z,1.70
2023-04-16T14:44:23.430Z,1.98
2023-04-16T14:46:50.215Z,2.47
2023-04-16T14:49:17.323Z,1.50
2023-04-16T14:51:45.264Z,1.77
2023-04-16T14:54:12.154Z,2.35
2023-04-16T14:56:39.012Z,1.77
2023-04-16T14:59:06.133Z,3.45
2023-04-16T15:01:33.562Z,4.30
2023-04-16T15:04:01.966Z,5.03
2023-04-16T15:06:29.097Z,3.88
2023-04-16T15:08:55.927Z,2.83
2023-04-16T15:11:22.721Z,2.67
2023-04-16T15:13:49.592Z,1.70
2023-04-16T15:16:16.960Z,3.97
2023-04-16T15:18:43.923Z,3.33
2023-04-16T15:21:12.572Z,1.98
2023-04-16T15:23:39.665Z,2.85
2023-04-16T15:26:06.703Z,3.08
2023-04-16T15:28:33.563Z,2.80
2023-04-16T15:31:02.809Z,1.48
2023-04-16T15:33:29.640Z,3.25
2023-04-16T15:35:56.459Z,1.85
2023-04-16T15:38:23.278Z,2.13
2023-04-16T15:40:50.251Z,5.72
2023-04-16T15:43:17.209Z,2.03
2023-04-16T15:45:44.096Z,3.50
2023-04-16T15:48:10.949Z,2.95
2023-04-16T15:50:37.844Z,1.77
2023-04-16T15:53:04.844Z,1.42
2023-04-16T15:55:31.726Z,2.53
2023-04-16T15:57:58.576Z,3.17
2023-04-16T16:00:26.048Z,2.38
2023-04-16T16:02:52.911Z,1.92
2023-04-16T16:05:20.057Z,2.72
2023-04-16T16:07:47.161Z,2.67
2023-04-16T16:10:14.184Z,1.52
2023-04-16T16:12:41.093Z,3.20
2023-04-16T16:15:08.340Z,1.73
2023-04-16T16:17:35.234Z,1.25
2023-04-16T16:20:02.225Z,2.58
2023-04-16T16:22:29.961Z,2.03
2023-04-16T16:24:57.783Z,2.55
2023-04-16T16:27:24.688Z,2.60
2023-04-16T16:29:51.610Z,2.47
2023-04-16T16:32:18.426Z,2.28
2023-04-16T16:34:45.228Z,2.45
2023-04-16T16:37:12.056Z,4.22
2023-04-16T16:39:39.108Z,2.40
2023-04-16T16:42:06.077Z,3.35
2023-04-16T16:44:32.889Z,3.75
2023-04-16T16:46:59.867Z,3.35
2023-04-16T16:49:26.732Z,4.00
2023-04-16T16:51:53.555Z,2.78
2023-04-16T16:54:20.349Z,2.10
2023-04-16T16:56:47.338Z,5.53
2023-04-16T16:59:14.158Z,3.97
2023-04-16T17:01:41.195Z,4.28
2023-04-16T17:04:08.172Z,3.95
2023-04-16T17:06:35.487Z,2.15
2023-04-16T17:09:02.299Z,4.85
2023-04-16T17:11:29.492Z,1.65
2023-04-16T17:13:56.440Z,2.88
2023-04-16T17:16:24.034Z,3.38
2023-04-16T17:18:51.133Z,2.47
2023-04-16T17:21:17.974Z,2.55
2023-04-16T17:23:44.872Z,2.38
2023-04-16T17:26:11.800Z,2.63
2023-04-16T17:28:38.758Z,2.00
2023-04-16T17:31:07.245Z,2.17
2023-04-16T17:33:34.244Z,1.35
2023-04-16T17:36:01.413Z,3.42
2023-04-16T17:38:28.259Z,3.17
2023-04-16T17:40:57.056Z,2.05
2023-04-16T17:43:24.283Z,6.28
2023-04-16T17:45:51.194Z,3.55
2023-04-16T17:48:18.086Z,1.23
2023-04-16T17:50:45.003Z,2.90
2023-04-16T17:53:11.860Z,3.85
2023-04-16T17:55:38.693Z,4.07
2023-04-16T17:58:05.530Z,4.00
2023-04-16T18:00:32.549Z,2.63
2023-04-16T18:02:59.932Z,2.25
2023-04-16T18:05:27.552Z,3.00
2023-04-16T18:07:55.651Z,3.25
2023-04-16T18:10:22.607Z,3.88
2023-04-16T18:12:49.528Z,3.25
2023-04-16T18:15:16.395Z,3.10
2023-04-16T18:17:43.194Z,2.70
2023-04-16T18:20:11.723Z,1.73
2023-04-16T18:22:38.584Z,2.78
2023-04-16T18:25:06.805Z,1.88
2023-04-16T18:27:33.756Z,3.75
2023-04-16T18:30:00.717Z,2.65
2023-04-16T18:32:30.784Z,3.03
2023-04-16T18:34:58.248Z,2.05
2023-04-16T18:37:25.084Z,3.13
2023-04-16T18:39:52.016Z,2.85
2023-04-16T18:42:18.893Z,2.83
2023-04-16T18:44:51.513Z,4.72
2023-04-16T18:47:18.354Z,2.92
2023-04-16T18:49:45.278Z,3.97
2023-04-16T18:52:12.354Z,2.50
2023-04-16T18:54:39.117Z,2.05
2023-04-16T18:57:06.125Z,2.72
2023-04-16T18:59:33.068Z,2.58
2023-04-16T19:02:00.086Z,2.10
2023-04-16T19:04:27.086Z,2.20
2023-04-16T19:06:53.908Z,2.20
2023-04-16T19:09:20.713Z,2.30
2023-04-16T19:11:49.338Z,5.57
2023-04-16T19:14:16.267Z,3.92
2023-04-16T19:16:43.134Z,3.20
2023-04-16T19:19:10.282Z,3.25
2023-04-16T19:21:37.426Z,3.80
2023-04-16T19:24:04.387Z,3.75
2023-04-16T19:26:31.206Z,3.45
2023-04-16T19:28:58.061Z,4.50
2023-04-16T19:31:26.291Z,3.08
2023-04-16T19:33:53.179Z,2.80
2023-04-16T19:36:20.066Z,2.53
2023-04-16T19:38:46.904Z,4.15
2023-04-16T19:41:13.685Z,1.58
2023-04-16T19:43:40.934Z,4.47
2023-04-16T19:46:07.876Z,4.53
2023-04-16T19:48:34.739Z,2.65
2023-04-16T19:51:02.758Z,2.90
2023-04-16T19:53:29.765Z,3.15
2023-04-16T19:55:56.585Z,4.22
2023-04-16T19:58:23.480Z,2.35
2023-04-16T20:00:50.552Z,3.42
2023-04-16T20:03:17.549Z,3.13
2023-04-16T20:05:47.642Z,3.55
2023-04-16T20:08:14.514Z,2.47
2023-04-16T20:10:41.284Z,3.53
2023-04-16T20:13:11.984Z,3.42
2023-04-16T20:15:38.888Z,1.98
2023-04-16T20:18:06.354Z,3.85
2023-04-16T20:20:37.915Z,3.58
2023-04-16T20:23:05.065Z,3.28
2023-04-16T20:25:31.969Z,1.73
2023-04-16T20:27:58.828Z,2.20
2023-04-16T20:30:29.550Z,2.70
2023-04-16T20:32:56.739Z,3.13
2023-04-16T20:35:23.613Z,1.88
2023-04-16T20:37:50.401Z,3.42
2023-04-16T20:40:17.451Z,4.78
2023-04-16T20:42:47.690Z,1.67
2023-04-16T20:45:14.527Z,3.05
2023-04-16T20:47:43.561Z,3.17
2023-04-16T20:50:11.237Z,2.13
2023-04-16T20:52:38.123Z,3.47
2023-04-16T20:55:05.164Z,2.47
2023-04-16T20:57:32.194Z,2.67
2023-04-16T20:59:59.019Z,3.53
2023-04-16T21:02:28.468Z,2.90
2023-04-16T21:04:55.644Z,3.33
2023-04-16T21:07:22.580Z,2.78
2023-04-16T21:09:49.453Z,3.50
2023-04-16T21:12:16.645Z,2.92
2023-04-16T21:14:43.428Z,1.88
2023-04-16T21:17:10.301Z,2.58
2023-04-16T21:19:37.095Z,2.92
2023-04-16T21:22:03.981Z,2.88
2023-04-16T21:24:31.816Z,5.53
2023-04-16T21:26:58.630Z,4.10
2023-04-16T21:29:25.417Z,3.90
2023-04-16T21:31:52.581Z,3.10
2023-04-16T21:34:19.639Z,3.67
2023-04-16T21:36:46.663Z,4.28
2023-04-16T21:39:14.264Z,3.58
2023-04-16T21:41:41.184Z,3.80
2023-04-16T21:44:08.004Z,3.28
2023-04-16T21:46:34.896Z,4.50
2023-04-16T21:49:01.786Z,5.97
2023-04-16T21:51:31.631Z,5.95
2023-04-16T21:53:58.758Z,4.30
2023-04-16T21:56:27.159Z,4.35
2023-04-16T21:58:54.202Z,4.82
2023-04-16T22:01:21.057Z,4.85
2023-04-16T22:03:50.755Z,4.05
2023-04-16T22:06:17.925Z,5.00
2023-04-16T22:08:44.729Z,7.82
2023-04-16T22:11:11.606Z,12.02
2023-04-16T22:13:42.168Z,11.00
2023-04-16T22:16:11.543Z,10.43
2023-04-16T22:18:38.849Z,7.93
2023-04-16T22:21:05.834Z,9.75
2023-04-16T22:23:32.812Z,8.65
2023-04-16T22:25:59.658Z,9.85
2023-04-16T22:28:26.516Z,9.00
2023-04-16T22:30:53.411Z,10.48
2023-04-16T22:33:20.363Z,11.45
2023-04-16T22:35:47.226Z,14.20
2023-04-16T22:38:14.159Z,15.85
2023-04-16T22:40:41.128Z,10.50
2023-04-16T22:43:08.043Z,11.40
2023-04-16T22:45:35.772Z,11.75
2023-04-16T22:48:02.935Z,10.95
2023-04-16T22:50:31.476Z,9.90
2023-04-16T22:52:58.418Z,8.65
2023-04-16T22:55:25.584Z,10.35
2023-04-16T22:57:52.444Z,9.20
2023-04-16T23:00:19.414Z,9.50
2023-04-16T23:02:46.582Z,9.52
2023-04-16T23:05:13.579Z,10.52
2023-04-16T23:07:40.577Z,10.30
2023-04-16T23:10:08.653Z,9.10
2023-04-16T23:12:37.591Z,5.95
2023-04-16T23:15:06.589Z,6.82
2023-04-16T23:17:33.973Z,5.82
2023-04-16T23:20:00.962Z,7.25
2023-04-16T23:22:27.869Z,5.05
2023-04-16T23:24:54.771Z,5.30
2023-04-16T23:27:21.570Z,6.13
2023-04-16T23:29:48.418Z,5.32
2023-04-16T23:32:15.168Z,4.80
2023-04-16T23:34:42.141Z,5.65
2023-04-16T23:37:09.102Z,5.78
2023-04-16T23:39:35.912Z,6.40
2023-04-16T23:42:03.227Z,4.22
2023-04-16T23:44:30.116Z,4.32
2023-04-16T23:46:57.431Z,4.40
2023-04-16T23:49:24.472Z,4.85
2023-04-16T23:51:51.493Z,5.03
2023-04-16T23:54:18.367Z,6.82
2023-04-16T23:56:45.305Z,4.78
2023-04-16T23:59:12.780Z,5.10
